createdAt,value
2017-08-30T00:04:18.621Z,61.00
2017-08-30T00:09:21.235Z,60.60
2017-08-30T00:14:23.832Z,60.80
2017-08-30T00:19:26.437Z,61.00
2017-08-30T00:24:41.002Z,61.40
2017-08-30T00:29:43.597Z,61.70
2017-08-30T00:34:46.213Z,62.00
2017-08-30T00:39:48.821Z,62.00
2017-08-30T00:44:51.413Z,62.10
2017-08-30T00:49:54.038Z,62.10
2017-08-30T00:54:56.642Z,62.70
2017-08-30T00:59:59.250Z,62.60
2017-08-30T01:05:01.855Z,62.90
2017-08-30T01:10:04.449Z,62.70
2017-08-30T01:15:07.053Z,63.10
2017-08-30T01:20:09.683Z,62.80
2017-08-30T01:25:12.306Z,63.40
2017-08-30T01:30:14.906Z,62.90
2017-08-30T01:35:17.513Z,63.40
2017-08-30T01:40:20.110Z,63.40
2017-08-30T01:45:22.733Z,63.90
2017-08-30T01:50:25.345Z,63.30
2017-08-30T01:55:27.945Z,64.00
2017-08-30T02:00:30.565Z,63.70
2017-08-30T02:05:33.159Z,63.50
2017-08-30T02:10:35.746Z,64.00
2017-08-30T02:15:38.336Z,64.50
2017-08-30T02:20:40.954Z,64.30
2017-08-30T02:25:43.578Z,64.40
2017-08-30T02:30:46.215Z,64.30
2017-08-30T02:35:48.856Z,64.20
2017-08-30T02:40:51.448Z,64.30
2017-08-30T02:45:54.048Z,64.40
2017-08-30T02:50:56.654Z,63.60
2017-08-30T02:55:59.277Z,64.40
2017-08-30T03:01:01.901Z,64.20
2017-08-30T03:06:04.514Z,64.50
2017-08-30T03:11:07.146Z,64.50
2017-08-30T03:16:09.746Z,64.30
2017-08-30T03:21:12.353Z,64.60
2017-08-30T03:26:14.959Z,64.70
2017-08-30T03:31:17.575Z,65.20
2017-08-30T03:36:20.190Z,65.20
2017-08-30T03:41:24.583Z,65.10
2017-08-30T03:46:27.202Z,64.80
2017-08-30T03:51:29.850Z,65.20
2017-08-30T03:56:32.449Z,65.50
2017-08-30T04:01:35.837Z,65.30
2017-08-30T04:06:38.438Z,65.20
2017-08-30T04:11:41.049Z,65.60
2017-08-30T04:16:43.662Z,65.40
2017-08-30T04:21:46.317Z,65.70
2017-08-30T04:26:48.918Z,65.70
2017-08-30T04:31:51.578Z,65.70
2017-08-30T04:36:54.165Z,66.00
2017-08-30T04:41:56.746Z,66.10
2017-08-30T04:46:59.361Z,66.60
2017-08-30T04:52:02.015Z,66.20
2017-08-30T04:57:04.625Z,66.70
2017-08-30T05:02:07.230Z,66.50
2017-08-30T05:07:09.845Z,67.00
2017-08-30T05:12:12.440Z,67.80
2017-08-30T05:17:15.066Z,68.00
2017-08-30T05:22:17.674Z,68.20
2017-08-30T05:27:20.287Z,68.50
2017-08-30T05:32:22.912Z,68.00
2017-08-30T05:37:25.533Z,68.10
2017-08-30T05:42:28.162Z,68.40
2017-08-30T05:47:30.793Z,68.30
2017-08-30T05:52:33.394Z,68.60
2017-08-30T05:57:36.051Z,68.80
2017-08-30T06:02:38.694Z,68.40
2017-08-30T06:07:41.315Z,69.00
2017-08-30T06:12:43.935Z,68.30
2017-08-30T06:17:46.551Z,68.00
2017-08-30T06:22:49.194Z,66.80
2017-08-30T06:27:51.822Z,66.70
2017-08-30T06:32:54.422Z,65.40
2017-08-30T06:37:57.045Z,65.40
2017-08-30T06:42:59.641Z,64.00
2017-08-30T06:48:02.254Z,63.50
2017-08-30T06:53:04.850Z,62.50
2017-08-30T06:58:07.462Z,61.70
2017-08-30T07:03:10.328Z,60.90
2017-08-30T07:08:12.962Z,59.70
2017-08-30T07:13:15.592Z,59.00
2017-08-30T07:18:18.213Z,58.70
2017-08-30T07:23:21.559Z,57.70
2017-08-30T07:28:24.173Z,57.20
2017-08-30T07:33:26.793Z,56.80
2017-08-30T07:38:31.282Z,56.40
2017-08-30T07:43:33.937Z,56.00
2017-08-30T07:48:36.529Z,55.40
2017-08-30T07:53:39.390Z,54.70
2017-08-30T07:58:47.542Z,54.40
2017-08-30T08:03:54.111Z,53.50
2017-08-30T08:08:56.725Z,53.40
2017-08-30T08:14:04.477Z,53.00
2017-08-30T08:19:07.127Z,52.90
2017-08-30T08:24:09.744Z,52.40
2017-08-30T08:29:12.349Z,52.00
2017-08-30T08:34:14.951Z,52.30
2017-08-30T08:39:17.570Z,51.70
2017-08-30T08:44:20.190Z,51.50
2017-08-30T08:49:22.821Z,51.50
2017-08-30T08:54:25.432Z,51.00
2017-08-30T08:59:28.032Z,50.10
2017-08-30T09:04:30.645Z,50.20
2017-08-30T09:09:33.274Z,50.00
2017-08-30T09:14:35.881Z,49.70
2017-08-30T09:19:38.500Z,49.30
2017-08-30T09:24:41.094Z,49.20
2017-08-30T09:29:43.724Z,48.40
2017-08-30T09:34:46.316Z,49.00
2017-08-30T09:39:48.910Z,48.60
2017-08-30T09:44:51.506Z,48.80
2017-08-30T09:49:54.130Z,48.40
2017-08-30T09:54:56.756Z,48.20
2017-08-30T09:59:59.380Z,48.90
2017-08-30T10:05:01.984Z,47.90
2017-08-30T10:10:04.636Z,47.80
2017-08-30T10:15:07.270Z,48.00
2017-08-30T10:20:09.864Z,47.10
2017-08-30T10:25:12.473Z,47.00
2017-08-30T10:30:15.108Z,46.60
2017-08-30T10:35:17.709Z,46.80
2017-08-30T10:40:20.352Z,46.80
2017-08-30T10:45:22.957Z,47.00
2017-08-30T10:50:25.567Z,46.50
2017-08-30T10:55:28.185Z,46.80
2017-08-30T11:00:30.925Z,46.70
2017-08-30T11:05:33.511Z,46.70
2017-08-30T11:10:36.105Z,45.70
2017-08-30T11:15:38.713Z,45.20
2017-08-30T11:20:41.311Z,44.60
2017-08-30T11:25:43.905Z,44.00
2017-08-30T11:30:46.557Z,44.60
2017-08-30T11:35:49.158Z,45.00
2017-08-30T11:40:51.754Z,44.10
2017-08-30T11:45:55.131Z,43.20
2017-08-30T11:50:57.729Z,43.40
2017-08-30T11:56:00.346Z,43.40
2017-08-30T12:01:02.955Z,42.90
2017-08-30T12:06:05.566Z,43.20
2017-08-30T12:16:13.192Z,43.20
2017-08-30T12:21:15.828Z,43.50
2017-08-30T12:26:18.503Z,43.00
2017-08-30T12:31:21.109Z,42.50
2017-08-30T12:36:23.737Z,41.30
2017-08-30T12:41:26.350Z,41.30
2017-08-30T12:46:28.967Z,40.90
2017-08-30T12:51:31.567Z,41.60
2017-08-30T12:56:34.162Z,41.00
2017-08-30T13:01:37.575Z,40.30
2017-08-30T13:06:40.189Z,40.30
2017-08-30T13:11:43.732Z,40.20
2017-08-30T13:16:46.841Z,40.30
2017-08-30T13:21:49.467Z,39.60
2017-08-30T13:26:52.079Z,40.90
2017-08-30T13:31:54.688Z,39.80
2017-08-30T13:36:57.305Z,40.20
2017-08-30T13:41:59.926Z,40.00
2017-08-30T13:47:02.542Z,40.50
2017-08-30T13:52:05.146Z,40.00
2017-08-30T13:57:07.764Z,39.80
2017-08-30T14:02:10.358Z,40.00
2017-08-30T14:07:12.959Z,40.00
2017-08-30T14:12:15.584Z,40.00
2017-08-30T14:17:18.190Z,40.10
2017-08-30T14:22:20.787Z,40.20
2017-08-30T14:27:23.386Z,40.60
2017-08-30T14:32:25.975Z,41.10
2017-08-30T14:37:28.587Z,40.40
2017-08-30T14:42:31.224Z,40.70
2017-08-30T14:47:33.824Z,40.40
2017-08-30T14:52:36.433Z,40.40
2017-08-30T14:57:39.059Z,40.30
2017-08-30T15:02:41.673Z,40.00
2017-08-30T15:07:44.324Z,40.70
2017-08-30T15:12:46.962Z,40.20
2017-08-30T15:17:49.602Z,40.40
2017-08-30T15:22:52.210Z,41.20
2017-08-30T15:27:55.666Z,41.30
2017-08-30T15:32:58.267Z,41.60
2017-08-30T15:38:02.714Z,41.60
2017-08-30T15:43:05.329Z,41.80
2017-08-30T15:48:07.966Z,42.00
2017-08-30T15:53:10.590Z,41.90
2017-08-30T15:58:13.229Z,42.30
2017-08-30T16:03:15.838Z,42.50
2017-08-30T16:08:18.436Z,42.90
2017-08-30T16:13:21.050Z,43.10
2017-08-30T16:18:23.677Z,43.30
2017-08-30T16:23:26.313Z,43.50
2017-08-30T16:28:29.009Z,43.30
2017-08-30T16:33:31.641Z,43.60
2017-08-30T16:38:34.270Z,44.00
2017-08-30T16:43:36.898Z,44.30
2017-08-30T16:48:39.530Z,44.70
2017-08-30T16:53:42.146Z,44.80
2017-08-30T16:58:44.733Z,44.90
2017-08-30T17:03:47.338Z,44.90
2017-08-30T17:08:49.954Z,45.10
2017-08-30T17:13:52.626Z,45.30
2017-08-30T17:18:55.269Z,45.70
2017-08-30T17:23:57.950Z,46.00
2017-08-30T17:29:00.573Z,46.10
2017-08-30T17:34:03.198Z,46.30
2017-08-30T17:39:05.868Z,46.30
2017-08-30T17:44:08.476Z,46.40
2017-08-30T17:49:11.193Z,46.50
2017-08-30T17:54:13.837Z,47.20
2017-08-30T17:59:16.437Z,47.50
2017-08-30T18:04:19.058Z,47.90
2017-08-30T18:09:21.676Z,48.10
2017-08-30T18:14:24.322Z,48.20
2017-08-30T18:19:26.941Z,48.30
2017-08-30T18:24:29.599Z,48.50
2017-08-30T18:29:32.227Z,48.70
2017-08-30T18:34:34.829Z,48.70
2017-08-30T18:39:37.447Z,48.90
2017-08-30T18:44:40.068Z,49.10
2017-08-30T18:49:42.650Z,49.60
2017-08-30T18:54:45.296Z,50.00
2017-08-30T18:59:48.183Z,50.40
2017-08-30T19:04:50.791Z,51.10
2017-08-30T19:09:53.425Z,51.20
2017-08-30T19:14:56.029Z,51.20
2017-08-30T19:19:58.657Z,51.10
2017-08-30T19:25:01.277Z,51.40
2017-08-30T19:30:03.891Z,52.30
2017-08-30T19:35:06.489Z,52.40
2017-08-30T19:40:09.095Z,52.50
2017-08-30T19:45:11.699Z,52.30
2017-08-30T19:50:14.310Z,52.30
2017-08-30T19:55:16.906Z,52.20
2017-08-30T20:00:19.527Z,52.20
2017-08-30T20:05:22.147Z,52.40
2017-08-30T20:10:24.782Z,52.50
2017-08-30T20:15:27.384Z,52.70
2017-08-30T20:20:30.020Z,52.90
2017-08-30T20:25:32.610Z,53.50
2017-08-30T20:30:35.201Z,54.00
2017-08-30T20:35:37.905Z,55.20
2017-08-30T20:40:40.542Z,54.60
2017-08-30T20:45:43.183Z,55.10
2017-08-30T20:50:45.813Z,55.20
2017-08-30T20:55:48.409Z,55.50
2017-08-30T21:00:51.041Z,55.70
2017-08-30T21:05:53.649Z,55.80
2017-08-30T21:10:56.257Z,56.00
2017-08-30T21:15:58.860Z,56.50
2017-08-30T21:21:01.482Z,56.80
2017-08-30T21:26:04.188Z,56.80
2017-08-30T21:31:06.797Z,56.70
2017-08-30T21:36:09.398Z,56.80
2017-08-30T21:41:11.995Z,56.60
2017-08-30T21:46:14.597Z,56.40
2017-08-30T21:51:17.209Z,56.70
2017-08-30T21:56:19.853Z,57.00
2017-08-30T22:01:22.458Z,57.20
2017-08-30T22:06:25.060Z,57.20
2017-08-30T22:11:27.663Z,57.30
2017-08-30T22:16:30.293Z,57.90
2017-08-30T22:21:32.906Z,58.10
2017-08-30T22:26:35.512Z,58.30
2017-08-30T22:31:38.105Z,58.60
2017-08-30T22:36:40.710Z,59.10
2017-08-30T22:41:43.297Z,59.20
2017-08-30T22:46:45.910Z,59.40
2017-08-30T22:51:48.510Z,59.70
2017-08-30T22:56:51.105Z,59.60
2017-08-30T23:01:53.830Z,59.70
2017-08-30T23:06:56.486Z,59.70
2017-08-30T23:11:59.099Z,59.80
2017-08-30T23:17:02.570Z,60.40
2017-08-30T23:22:05.191Z,60.30
2017-08-30T23:27:07.823Z,60.40
2017-08-30T23:32:10.426Z,60.50
2017-08-30T23:37:13.015Z,60.80
2017-08-30T23:42:15.601Z,60.90
2017-08-30T23:47:18.194Z,61.30
2017-08-30T23:52:20.825Z,60.60
2017-08-30T23:57:23.472Z,59.30
